Timeline UpdatesTrip UpdatesNews PostsPvt PostsTravel TipsAdmin PostsConv PostsFollowed PostsChat RequestsBlog PostsPNR Posts

Disclaimer
Search
 
 
Fri Apr 18, 2014 23:42:53 ISTHomeTrainsΣChainsAtlasPNRForumGalleryNewsFAQTripsMembersLoginFeedback
No Recent News for this Train
Other Trains in the News **new
Latest...
Will be diverted via Malkhedi-Agasod chord line avoiding Bina station from 24th march 2014
Wed Jan 29, 2014 (09:06PM)
⇐ Return Journey: Train# 18508

18507/Hirakud (Hirakund) Express

Mar 24 (6:58PM)
Change Departure Station:
Change Arrival Station:
Post a Train Travel TipPost a Train Travel Tip **new
Post a Comment/Question/Picture/VideoPost a Comment/Question/Picture/Video
Pantry/Catering
✓ Pantry Car Avbl
✓ Catering Avbl
Loco/Rake Reversals
SBP/Sambalpur Junction (3); JSG/Jharsuguda Junction (5); TLHR/Talcher;
RSA - Rake Sharing
Rake/Coach Composition
LOCO-SLR-GEN-GEN-GEN-GEN-S1-S2-S3-S4-S5-S6-PC-S7-S8-S9-S10-A1-B1-B2-GEN-GEN-SLR;; News/163411
Loco
VSKP-JSG- WDM-3A VSKP JSG-ASR -WAP-1/4 GZB Blog entry #541879-2
News    PNR    Forum    Time-Table    Availability    Fare Chart    Map    Arr/Dep History    Trips    Gallery    ΣChains    X/O    Timeline    
Travel Time: 11h 40m    7 halts    Distance: 590 km    Avg Speed: 50 km/hr
Type: Mail/Express
Zone: ECoR/East Coast
Departs @ 12:15 (Avg 1h 12m late)
Platform# 2
S  W  S
Mathura Junction/MTJ 
Arrives @ 23:55 (Avg 34m late)
Platform# 2
S  W  S
Amritsar Junction/ASR 

7 halts. 96 intermediate Stations between Mathura Junction and Amritsar Junction

Show ALL intermediate Stations  Show Old Time-Table

#CodeStation NameX/OArrivesAvgDepartsAvgHaltPFDay#KmSpeedElevZoneAddress
1VSKPVisakhapatnam Junction (8)  -23:50+181-1984.56711mECoRVishakhapatnam 530001, Andhra Pradesh
2VZMVizianagaram Junction (5)XO  00:45+1600:50+175m--2-1923.47963mECoRVizianagaram ph.no 08922-225510, Andhra Pradesh
3CHESrikakulam Road (4)  01:43+1301:45+132m--2-1853.86034mECoRsrikakulam road ph .no. 08942-287222, Andhra Pradesh
4PSAPalasa (3)  02:58+203:00+42m--2-1780.98131mECoRKasibugga, Andhra Pradesh
5BAMBrahmapur (3)X  03:55+1104:00+115m12-1706.57227mECoRBerhampur, Odisha
6CAPChatrapur  04:18+1304:19+141m--2-1685.17136mECoRChatrapur, Odisha
7BALUBalugaon (3)  05:05+1305:06+141m--2-1630.45411mECoR752030, Odisha
8KURKhurda Road Junction (7)XO  06:25+006:40+315m--2-1559.44525mECoRKhordha, Odisha
9BBSBhubaneswar (4)X  07:05+407:10+45m22-1540.45540mECoRBhubaneshwar ph.no. 0674-2532233, Odisha
10DNKLDhenkanal (2)  08:17+908:18+101m--2-1478.77559mECoRDhenkanal, Odisha
11TLHRTalcher09:00+2109:25+2325m--2-1426.51686mECoRSub-division Angul district, Odisha
12ANGLAngul (2)X  10:33+210:35+32m--2-1408.473120mECoRAngul District, Odisha
13BONABoinda  11:07+2011:08+211m--2-1369.478292mECoRState Highway 62, Odisha
14RAIRRairakhol  11:44+2611:45+291m--2-1322.957144mECoRSH 24, Odisha
15SBPSambalpur Junction (3)13:00+2113:20+2120m12-1251.815159mECoRSambalpur, Odisha
16SBPDSambalpur Road  13:26+813:28+82m22-1250.322161mECoRSambalpur, Odisha
17JSGJharsuguda Junction (5)XOO14:40+1015:15+635m12-1203.278236mSERJharsuguda, Odisha
18BRJNBrajrajnagar  15:24+2015:25+211m--2-1191.559212mSECRBrajrajnagar, Odisha
19BPHBelpahar  15:34+2215:35+251m--2-1182.685235mSECRBelpahar, Odisha
20RIGRaigarh (3)  16:11+2916:13+292m--2-1131.589220mSECRRaigarh, Chhattisgarh
21KHSKharsiaX  16:36+4016:37+411m--2-1097.671259mSECRNational Highway 200, Chhattisgarh
22SKTSakti (4)  16:50+4316:51+441m--2-1082.252237mSECRJanjgir-Champa, Chhattisgarh
23CPHChampa Junction (3)X  17:26+4117:31+395m22-1051.870264mSECRNational Highway 200 (07819-245767), Chhattisgarh
24AKTAkaltara (4)  17:53+3817:54+381m--2-1026.029284mSECRDist. Janjgir Champa, Chhattisgarh
25BSPBilaspur Junction (8)  18:50+1619:05+2515m52-998.862271mSECRBilaspur, Chhattisgarh
26PNDPendra Road  20:43+3920:45+402m--2-897.261620mSECRBilaspur district, Chhattisgarh
27APRAnuppur Junction (3)  21:35+3921:40+395m--2-846.155487mSECRAnuppur, Madhya Pradesh
28SDLShahdol  22:25+3422:27+342m--2-805.259466mSECR, Madhya Pradesh
29UMRUmaria (3)X  23:35+2023:37+202m--2-737.933469mSECRUmaria, Madhya Pradesh
30KMZKatni Murwara  01:25+1201:35+1510m--3-679.174385mWCRMP 483504 ?, Madhya Pradesh
31DMODamoh (2)  03:03+1903:05+192m--3-570.066365mWCRDamoh, Madhya Pradesh
32SGOSaugor (2)  04:15+2204:20+225m--3-492.960519mWCRMP 470001Madhya pradesh, Madhya Pradesh
33KYEKhurai (5)  05:13+1805:15+192m--3-440.127439mWCRKhurai, Madhya Pradesh
34MAKRMalkheri Junction (2)  05:53+1205:55+142m--3-422.955421mWCRGuna, Madhya Pradesh
35LARLalitpur (3)X  07:04+1907:05+251m33-359.772373mNCRLalitpur, Uttar Pradesh
36JHSJhansi Junction (7)X  08:20+2308:28+268m23-269.476259mNCRJhansi, Uttar Pradesh
37GWLGwalior Junction (4)  09:45+3809:50+405m23-171.775214mNCRGwalior, Madhya Pradesh
38AGCAgra Cantt. (6)X  11:25+5911:30+1:015m13-53.777174mNCRAgra, Uttar Pradesh
39MTJ»Mathura Junction (10)»  12:12+1:1112:15+1:123m230.067179mNCRMathura, Uttar Pradesh
40NZMDelhi Hazrat Nizamuddin (7)XO  14:15+1:1314:17+1:142m33133.916209mNRNizamuddin East/Sarai KaleKhan Bus Terminal, Delhi NCT
41NDLSNew Delhi (16)  14:45+1:1015:15+1:0530m73141.366215mNRAjmeri Gate/Paharganj, Delhi NCT
42PNPPanipat Junction (5)X  16:37+1:3316:39+1:332m33230.957235mNRPanipat, Haryana
43UMBAmbala Cantt. Junction (7)O  18:35+1:1118:45+1:1210m73340.680278mNRAmbala 133001, Haryana
44LDHLudhiana Junction (7)X  20:10+1:2620:15+1:395m33454.243246mNRLudhiana 141001, Punjab
45JUCJalandhar City Junction (5)  21:35+1:2121:40+1:245m33511.057239mNRJalandhar 144001, Punjab
46BEASBeas Junction (2)  22:18+1:1722:19+1:181m13547.127238mNRBeas, Punjab
47ASR•Amritsar Junction (5)•  23:55+34-23590.1-233mNRAmritsar 143002, Punjab
Scroll to Top
Scroll to Bottom